PILOTS ONLINE: 183    ATC ONLINE: 26

KLTS

Altus Air Force Base

Location

City Altus
Country  United States
Latitude 34° 40' 1" N
Longitude 99° 16' 0" W
Elevation 1382 ft
Type Large Airport

Map

Weather

METAR
2014/08/28 04:58
KLTS 280458Z AUTO 13010KT 10SM CLR 29/18 A3000 RMK AO2 SLP140 T02860180 $
TAF
2014/08/28 01:09
TAF KLTS 2801/2907 13009KT 9999 FEW080 SCT250 QNH2989INS 
      BECMG 2817/2818 19010G15KT 8000 -SHRA VCTS BKN060CB OVC080 QNH2993INS 
      TEMPO 2821/2902 23015G25KT 6000 -TSRA OVC050CB 
      BECMG 2902/2903 18012KT 6000 -RA OVC040 QNH2985INS TX37/2821Z TN22/2811Z

Runways

17/35 3501 ft / 94 ft
174/354 3501 ft / 94 ft
17L/35R 9000 ft / 150 ft
17R/35L 13440 ft / 150 ft

Outbound flights

Callsign Flying to Pilot ATD/STD ETA Aircraft

Inbound flights

Callsign Flying from Pilot ATD ETA Aircraft